Koyukuk, AK (99754)

20:30:AKST den 25. februar 2017 (GMT -0900)
Pitka | | Change Station
Gjeldende advarsel: Winter Weather Advisory

H.o.h 151 ft 64.74 °N, 156.94 °W | Updated 33 minutes ago

Overskyet
Overskyet
37 °F
Feels Like 28 °F
N
14
Vind Variabel Vind from SV
Gusts 28 mph

I dag
High -- | Low -- °F
--% Chance of Precip.
I går
High -- | Low -- °F
Precip. -- tommer
Lufttrykk 30.14 tommer
Sikt 10.0 eng. mil
Skyet Sporadisk skyet 2600 ft
Sporadisk skyet 3700 ft
Overskyet 6500 ft
Nedkjølingseffekt 28 °F
Duggpunkt 28 °F
Fuktighet 70%
Regn 0.00 tommer
Snødybde Not available.
8:52 AM 6:36 PM
Minkende sigd, 0% visible
METAR PAGA 260457Z AUTO 23012G24KT 10SM SCT026 SCT037 OVC065 03/M02 A3012 RMK AO2 SLP206 T00281022
Lufttrykk 30.14 tommer
Sikt 10.0 eng. mil
Skyet Sporadisk skyet 2600 ft
Sporadisk skyet 3700 ft
Overskyet 6500 ft
Nedkjølingseffekt 28 °F
Duggpunkt 28 °F
Fuktighet 70%
Regn 0.00 tommer
Snødybde Not available.
8:52 AM 6:36 PM
Minkende sigd, 0% visible
METAR PAGA 260457Z AUTO 23012G24KT 10SM SCT026 SCT037 OVC065 03/M02 A3012 RMK AO2 SLP206 T00281022

Get Your Daily Forecast Email!

Thanks for signing up!

Be on the lookout for a verification email in your inbox.

You'll start receiving the daily forecast at 8 AM.

×

10-Day Weather Forecast

Almanac

Astronomi

Feb. 25, 2017 Oppgang Nedgang
Virkelig tid
Tussmørke
Nautisk skumring
Astronomisk skumring
Månen
Lengde av synlig lys
Dagens lengde
Tomorrow will be .
, % of the Moon is Illuminated

Dagens maks og min

State Highs State Lows

Community

WunderPhotos

Upload Photos

1,962,540 photos uploaded!

WunderBlog® & News

Nearby

Luftkvalitet

  Luftkvalitet AQ Indeks Forurensing
Not available.

Snødybde

Stasjon Depth Høyde over havet

Earthquake Activity

By Distance Mag. Time & Date
Minimum magnitude displayed is 2.5.

Coastal Water Temperatures

Sted Temperatur

Stations

Nearby Weather Stations

Stasjonens lokasjon Temp. Nedkjølingseffekt Duggpunkt Fuktighet Vind Precip. H.o.h Oppdatert Type
                   

Watches & Warnings

Winter Weather Advisory
Issued: 18:09 AKST Feb. 25, 2017 – National Weather Service

... Winter Weather Advisory remains in effect until 6 am akst
Sunday...

* snow... 3 to 9 inches, heaviest near the Nulato Hills.

* Timing... snow will be heavy at times south and east of Galena
this evening. Snow will taper off overnight tonight.

* Impacts... visibility may be greatly reduced. Travel and
outdoor activities will be difficult.

Precautionary/preparedness actions...

A Winter Weather Advisory means that one or more winter weather
hazards are expected to cause travel difficulties.